Latest Weather Observations for Jandakot

IDW60801

Issued at 10:34 am WST Sunday 26 June 2016 (issued every 30 minutes, with the page automatically refreshed every 10 minutes)

About weather observations | Map of weather stations | Latest weather observations for WA | Other Formats
Station Details ID: 009172 Name: JANDAKOT AERO Lat: -32.10 Lon: 115.88 Height: 30.0 m
Data from the previous 72 hours. | See also: Recent months at Jandakot
Date/Time
WST
Temp
°C
App
Temp
°C
Dew
Point
°C
Rel
Hum
%
Delta-T
°C
Wind Press
QNH
hPa
Press
MSL
hPa
Rain since
9am
mm
Dir  Spd
km/h
Gust
km/h
Spd
kts
Gust
kts
26/10:30am 13.2 8.6 3.9 53 4.2 N 17 22 9 12 1026.2 1026.2 0.0
26/10:00am 11.8 8.4 4.2 59 3.4 N 11 15 6 8 1026.4 1026.4 0.0
26/09:30am 10.7 7.8 4.4 65 2.8 N 9 15 5 8 1026.2 1026.2 0.0
26/09:00am 9.3 6.1 5.3 76 1.8 N 11 13 6 7 1026.0 1026.0 1.6
26/08:30am 6.5 4.2 5.6 94 0.4 NE 7 9 4 5 1025.7 1025.7 1.6
26/08:00am 4.4 1.9 3.7 95 0.3 N 6 7 3 4 1025.7 1025.7 1.6
26/07:30am 3.4 0.2 3.2 99 0.1 N 9 11 5 6 1025.5 1025.5 1.4
26/07:00am 2.5 -0.5 2.2 98 0.1 NE 7 9 4 5 1025.1 1025.1 1.4
26/06:30am 2.1 -1.6 2.1 100 0.0 ENE 11 13 6 7 1024.8 1024.8 1.4
26/06:00am 2.2 -1.2 1.7 96 0.2 NE 9 9 5 5 1024.7 1024.7 1.4
26/05:30am 2.2 -0.9 1.1 92 0.4 E 7 9 4 5 1024.7 1024.7 1.4
26/05:00am 1.5 -1.4 1.2 98 0.1 NE 6 9 3 5 1024.6 1024.6 1.4
26/04:30am 2.3 0.6 1.8 96 0.2 CALM 0 0 0 0 1024.7 1024.7 1.4
26/04:00am 1.8 -1.3 1.3 96 0.2 E 7 7 4 4 1024.4 1024.4 1.4
26/03:30am 2.5 0.8 1.7 94 0.3 CALM 0 0 0 0 1024.5 1024.5 1.4
26/03:00am 2.3 -0.5 1.8 96 0.2 E 6 7 3 4 1024.7 1024.7 1.4
26/02:30am 3.3 1.7 2.5 94 0.3 CALM 0 6 0 3 1024.8 1024.8 1.4
26/02:00am 2.9 1.3 2.4 96 0.2 CALM 0 0 0 0 1024.6 1024.6 1.4
26/01:30am 3.6 2.1 2.9 95 0.3 CALM 0 0 0 0 1024.4 1024.4 1.4
26/01:00am 4.3 2.5 3.6 95 0.3 NNE 2 7 1 4 1024.3 1024.3 1.4
26/12:30am 5.2 3.1 4.0 92 0.5 NNE 4 6 2 3 1024.3 1024.3 1.4
26/12:00am 5.9 3.6 5.0 94 0.4 ESE 6 6 3 3 1024.4 1024.4 1.4
 
Date/Time
WST
Temp
°C
App
Temp
°C
Dew
Point
°C
Rel
Hum
%
Delta-T
°C
Wind Press
QNH
hPa
Press
MSL
hPa
Rain since
9am
mm
Dir  Spd
km/h
Gust
km/h
Spd
kts
Gust
kts
25/11:30pm 5.3 3.0 4.8 97 0.2 E 6 9 3 5 1024.3 1024.3 1.4
25/11:00pm 5.2 2.8 4.3 94 0.4 E 6 7 3 4 1024.4 1024.4 1.4
25/10:30pm 4.6 3.3 4.1 97 0.2 CALM 0 0 0 0 1024.3 1024.3 1.4
25/10:00pm 5.8 4.7 5.3 97 0.2 CALM 0 0 0 0 1024.6 1024.6 1.4
25/09:30pm 5.6 4.5 5.1 97 0.2 CALM 0 0 0 0 1024.5 1024.5 1.4
25/09:00pm 6.6 5.6 5.5 93 0.5 CALM 0 0 0 0 1024.6 1024.6 1.4
25/08:30pm 7.0 6.0 5.4 89 0.7 CALM 0 0 0 0 1024.5 1024.5 1.4
25/08:00pm 7.9 5.8 5.7 86 1.0 S 6 6 3 3 1024.4 1024.4 1.4
25/07:30pm 8.2 5.6 6.0 86 1.0 S 9 11 5 6 1023.9 1023.9 1.4
25/07:00pm 8.6 6.2 6.9 89 0.8 S 9 11 5 6 1023.7 1023.7 1.4
25/06:30pm 10.4 8.2 6.3 76 1.9 S 7 9 4 5 1023.2 1023.2 1.4
25/06:00pm 11.1 8.2 6.6 74 2.1 SW 11 13 6 7 1022.7 1022.7 1.4
25/05:30pm 12.6 9.6 6.2 65 3.0 SW 11 15 6 8 1022.2 1022.2 1.4
25/05:00pm 14.3 10.9 6.1 58 3.9 S 13 15 7 8 1021.8 1021.8 1.4
25/04:30pm 15.3 11.4 6.9 57 4.1 SSW 17 24 9 13 1021.6 1021.6 1.4
25/04:00pm 15.9 11.1 5.7 50 4.9 S 20 30 11 16 1021.3 1021.3 1.4
25/03:30pm 16.0 10.9 5.8 50 4.9 S 22 32 12 17 1021.0 1021.0 1.4
25/03:00pm 16.3 11.4 6.7 53 4.7 S 22 32 12 17 1020.7 1020.7 1.4
25/02:30pm 16.6 12.2 7.4 54 4.6 SSW 20 30 11 16 1020.6 1020.6 1.4
25/02:00pm 15.9 10.3 7.0 55 4.4 SSW 26 35 14 19 1020.3 1020.3 1.4
25/01:30pm 16.5 12.4 8.7 60 4.0 S 20 30 11 16 1020.4 1020.4 1.4
25/01:00pm 16.0 12.2 9.0 63 3.6 S 19 28 10 15 1020.3 1020.3 1.4
25/12:30pm 15.6 13.3 10.3 70 2.8 S 13 22 7 12 1020.3 1020.3 1.4
25/12:00pm 15.1 12.6 10.9 76 2.2 S 15 20 8 11 1020.7 1020.7 1.4
25/11:30am 14.3 13.6 11.9 85 1.3 SE 7 9 4 5 1020.7 1020.7 1.4
25/11:00am 12.4 11.7 11.5 94 0.5 ENE 6 7 3 4 1021.0 1021.0 1.4
25/10:30am 11.8 11.7 10.8 94 0.5 NNE 2 7 1 4 1021.0 1021.0 1.2
25/10:26am 11.7 11.2 10.9 95 0.4 NNE 4 11 2 6 1021.0 1021.0 1.0
25/10:11am 11.8 10.9 11.2 96 0.3 NE 7 9 4 5 1020.9 1020.9 0.6
25/10:00am 11.6 10.3 11.2 97 0.2 NE 9 13 5 7 1020.6 1020.6 0.4
25/09:30am 11.1 10.5 10.5 96 0.3 NE 4 9 2 5 1020.3 1020.3 0.4
25/09:00am 10.8 7.3 10.2 96 0.3 NNE 19 24 10 13 1019.3 1019.3 9.2
25/08:30am 10.4 8.7 9.8 96 0.3 ENE 9 13 5 7 1019.2 1019.2 8.4
25/08:20am 10.0 8.6 9.6 97 0.2 E 7 11 4 6 1019.3 1019.3 8.2
25/08:01am 10.0 7.4 9.2 95 0.4 N 13 20 7 11 1019.7 1019.7 7.4
25/08:00am 9.9 6.9 9.3 96 0.3 N 15 22 8 12 1019.6 1019.6 7.0
25/07:30am 9.7 6.7 9.1 96 0.3 NNE 15 19 8 10 1018.5 1018.5 5.6
25/07:00am 9.7 5.9 8.9 95 0.4 NNE 19 22 10 12 1018.1 1018.1 4.0
25/06:30am 9.7 5.8 8.7 93 0.5 NNE 19 22 10 12 1018.0 1018.0 4.0
25/06:00am 9.4 5.9 8.6 95 0.4 NE 17 20 9 11 1017.8 1017.8 4.0
25/05:30am 9.9 7.9 8.5 91 0.7 ENE 9 17 5 9 1017.7 1017.7 4.0
25/05:01am 9.7 6.6 8.9 95 0.4 NNE 15 20 8 11 1017.5 1017.5 4.0
25/05:00am 9.8 6.6 8.6 92 0.6 NNE 15 20 8 11 1017.5 1017.5 4.0
25/04:49am 9.7 6.2 8.7 93 0.5 N 17 20 9 11 1017.2 1017.2 3.8
25/04:30am 9.6 5.7 8.6 93 0.5 NNE 19 20 10 11 1017.0 1017.0 2.2
25/04:00am 9.6 7.2 8.6 93 0.5 NE 11 15 6 8 1017.4 1017.4 1.8
25/03:30am 9.8 7.3 8.1 89 0.8 ENE 11 15 6 8 1017.5 1017.5 1.6
25/03:00am 10.0 6.8 8.6 91 0.7 NNE 15 17 8 9 1017.4 1017.4 1.2
25/02:30am 11.0 7.7 6.3 73 2.2 N 13 17 7 9 1017.6 1017.6 0.0
25/02:00am 11.2 7.1 6.1 71 2.4 N 17 20 9 11 1017.5 1017.5 0.0
25/01:30am 11.0 6.5 6.1 72 2.3 N 19 24 10 13 1017.4 1017.4 0.0
25/01:00am 11.1 6.7 6.4 73 2.2 N 19 22 10 12 1017.7 1017.7 0.0
25/12:30am 10.8 6.8 6.8 76 1.9 NNE 17 20 9 11 1017.9 1017.9 0.0
25/12:00am 11.2 7.7 7.0 75 2.0 N 15 20 8 11 1017.8 1017.8 0.0
 
Date/Time
WST
Temp
°C
App
Temp
°C
Dew
Point
°C
Rel
Hum
%
Delta-T
°C
Wind Press
QNH
hPa
Press
MSL
hPa
Rain since
9am
mm
Dir  Spd
km/h
Gust
km/h
Spd
kts
Gust
kts
24/11:30pm 11.1 7.2 7.1 76 1.9 N 17 20 9 11 1018.2 1018.2 0.0
24/11:00pm 10.7 8.1 7.6 81 1.5 N 11 15 6 8 1018.4 1018.4 0.0
24/10:30pm 10.4 7.7 7.5 82 1.4 N 11 15 6 8 1018.2 1018.2 0.0
24/10:00pm 11.1 7.2 6.9 75 2.0 NNE 17 20 9 11 1017.9 1017.9 0.0
24/09:30pm 11.0 7.1 7.2 77 1.8 NNE 17 19 9 10 1018.2 1018.2 0.0
24/09:00pm 11.0 8.0 7.5 79 1.7 N 13 15 7 8 1018.1 1018.1 0.0
24/08:30pm 10.5 7.4 7.4 81 1.5 NNE 13 15 7 8 1018.1 1018.1 0.0
24/08:00pm 10.9 8.4 8.0 82 1.4 NNE 11 13 6 7 1018.0 1018.0 0.0
24/07:30pm 10.9 8.7 8.0 82 1.4 NNE 9 11 5 6 1018.1 1018.1 0.0
24/07:00pm 11.2 9.4 8.1 81 1.5 N 7 7 4 4 1018.2 1018.2 0.0
24/06:30pm 13.9 11.7 7.8 66 3.0 N 9 11 5 6 1018.0 1018.0 0.0
24/06:00pm 14.4 12.5 7.7 64 3.3 N 7 9 4 5 1017.9 1017.9 0.0
24/05:30pm 15.1 12.7 7.2 59 3.9 N 9 11 5 6 1017.6 1017.6 0.0
24/05:00pm 15.6 13.1 6.6 55 4.4 N 9 13 5 7 1017.6 1017.6 0.0
24/04:30pm 16.1 12.8 6.2 52 4.8 N 13 17 7 9 1017.5 1017.5 0.0
24/04:00pm 16.4 12.7 6.1 50 5.0 N 15 20 8 11 1017.5 1017.5 0.0
24/03:30pm 16.8 13.3 5.6 47 5.4 N 13 19 7 10 1017.5 1017.5 0.0
24/03:00pm 16.5 12.7 5.7 49 5.2 NNE 15 20 8 11 1017.6 1017.6 0.0
24/02:30pm 16.5 12.6 5.4 48 5.3 NNE 15 20 8 11 1017.7 1017.7 0.0
24/02:00pm 16.0 11.8 5.6 50 5.0 N 17 22 9 12 1018.0 1018.0 0.0
24/01:30pm 15.4 10.7 5.3 51 4.8 N 19 22 10 12 1018.3 1018.3 0.0
24/01:00pm 15.1 10.5 5.4 52 4.6 NNE 19 24 10 13 1018.8 1018.8 0.0
24/12:30pm 15.1 10.8 5.4 52 4.6 NNE 17 24 9 13 1019.3 1019.3 0.0
24/12:00pm 15.3 11.0 5.1 50 4.8 N 17 24 9 13 1019.8 1019.8 0.0
24/11:30am 14.6 10.2 5.0 52 4.5 NNE 17 24 9 13 1020.2 1020.2 0.0
24/11:00am 14.3 9.3 4.8 53 4.4 NE 20 26 11 14 1020.7 1020.7 0.0
24/10:30am 13.9 9.1 4.6 53 4.3 NNE 19 24 10 13 1020.9 1020.9 0.0
24/10:00am 13.3 8.3 4.6 55 4.0 NNE 20 24 11 13 1021.1 1021.1 0.0
24/09:30am 12.9 8.0 4.3 56 3.9 NNE 19 24 10 13 1021.0 1021.0 0.0
24/09:00am 12.3 8.3 5.1 61 3.3 NNE 15 22 8 12 1020.9 1020.9 0.0
24/08:30am 11.8 8.3 5.5 65 2.9 NNE 13 15 7 8 1021.0 1021.0 0.0
24/08:00am 11.3 8.7 5.9 69 2.5 N 9 13 5 7 1020.8 1020.8 0.0
24/07:30am 11.1 7.7 5.7 69 2.5 NNE 13 17 7 9 1020.4 1020.4 0.0
24/07:00am 11.3 7.4 5.2 66 2.8 NNE 15 20 8 11 1020.5 1020.5 0.0
24/06:30am 11.4 6.7 5.3 66 2.8 NNE 19 22 10 12 1020.1 1020.1 0.0
24/06:00am 11.5 7.2 5.4 66 2.8 NNE 17 20 9 11 1020.2 1020.2 0.0
24/05:30am 11.7 7.8 5.4 65 2.9 NNE 15 19 8 10 1020.3 1020.3 0.0
24/05:00am 11.4 8.5 6.3 71 2.4 NNE 11 15 6 8 1020.2 1020.2 0.0
24/04:30am 11.1 8.7 6.9 75 2.0 NNE 9 11 5 6 1020.3 1020.3 0.0
24/04:00am 11.2 8.3 6.5 73 2.2 NNE 11 13 6 7 1020.3 1020.3 0.0
24/03:30am 11.1 9.1 6.9 75 2.0 NE 7 11 4 6 1020.3 1020.3 0.0
24/03:00am 11.1 7.9 6.9 75 2.0 NE 13 15 7 8 1020.4 1020.4 0.0
24/02:30am 11.2 10.1 7.0 75 2.0 NNE 2 7 1 4 1020.6 1020.6 0.0
24/02:00am 11.0 8.7 7.5 79 1.7 NNE 9 11 5 6 1020.7 1020.7 0.0
24/01:30am 11.0 8.3 7.5 79 1.7 ENE 11 15 6 8 1020.8 1020.8 0.0
24/01:00am 11.4 7.9 7.0 74 2.1 ENE 15 19 8 10 1021.1 1021.1 0.0
24/12:30am 10.8 9.1 7.7 81 1.5 E 6 13 3 7 1021.5 1021.5 0.0
24/12:00am 10.7 8.6 8.2 84 1.2 E 9 11 5 6 1021.7 1021.7 0.0
 
Date/Time
WST
Temp
°C
App
Temp
°C
Dew
Point
°C
Rel
Hum
%
Delta-T
°C
Wind Press
QNH
hPa
Press
MSL
hPa
Rain since
9am
mm
Dir  Spd
km/h
Gust
km/h
Spd
kts
Gust
kts
23/11:30pm 11.1 9.7 8.9 86 1.1 SE 6 7 3 4 1022.1 1022.1 0.0
23/11:00pm 11.0 9.6 8.8 86 1.1 E 6 7 3 4 1022.0 1022.0 0.0
23/10:30pm 11.0 9.0 8.6 85 1.2 E 9 11 5 6 1022.1 1022.1 0.0
23/10:00pm 11.3 9.2 8.4 82 1.4 E 9 11 5 6 1022.1 1022.1 0.0
23/09:30pm 12.0 10.9 8.3 78 1.8 SSE 4 7 2 4 1022.2 1022.2 0.0
23/09:00pm 11.8 10.3 9.0 83 1.4 ESE 7 9 4 5 1022.1 1022.1 0.0
23/08:30pm 11.5 9.7 9.3 86 1.1 SE 9 11 5 6 1022.0 1022.0 0.0
23/08:00pm 12.6 11.1 8.6 76 2.0 NNE 6 7 3 4 1021.8 1021.8 0.0
23/07:30pm 12.6 11.8 9.6 82 1.5 SSE 4 6 2 3 1021.8 1021.8 0.0
23/07:00pm 13.2 11.3 9.0 75 2.1 SSE 9 11 5 6 1021.7 1021.7 0.0
23/06:30pm 13.5 11.7 9.4 76 2.1 SSE 9 9 5 5 1021.5 1021.5 0.0
23/06:00pm 13.8 12.0 9.5 75 2.2 S 9 9 5 5 1021.3 1021.3 0.0
23/05:30pm 14.3 12.7 8.7 69 2.8 S 7 7 4 4 1021.1 1021.1 0.0
23/05:00pm 14.6 13.0 8.0 64 3.3 SSW 6 7 3 4 1021.0 1021.0 0.0
23/04:30pm 14.9 12.6 7.4 61 3.7 SSE 9 11 5 6 1020.7 1020.7 0.0
23/04:00pm 15.4 13.0 6.8 56 4.2 SSE 9 13 5 7 1020.6 1020.6 0.0
23/03:30pm 16.0 12.7 6.3 52 4.7 SSW 13 15 7 8 1020.5 1020.5 0.0
23/03:00pm 15.6 13.0 6.0 53 4.6 S 9 15 5 8 1020.6 1020.6 0.0
23/02:30pm 15.6 13.1 6.6 55 4.4 SSE 9 20 5 11 1020.7 1020.7 0.0
23/02:00pm 15.7 12.8 6.4 54 4.5 S 11 15 6 8 1020.9 1020.9 0.0
23/01:30pm 16.0 13.0 5.8 50 4.9 S 11 19 6 10 1021.1 1021.1 0.0
23/01:00pm 15.4 12.4 5.8 52 4.6 SSE 11 17 6 9 1021.4 1021.4 0.0
23/12:30pm 15.4 12.5 6.5 55 4.3 SSE 11 17 6 9 1021.6 1021.6 0.0
23/12:00pm 14.8 12.2 6.0 55 4.2 S 9 15 5 8 1021.8 1021.8 0.0
23/11:30am 14.3 11.8 6.4 59 3.8 SSE 9 13 5 7 1021.9 1021.9 0.0
23/11:00am 13.9 11.5 7.1 63 3.3 ESE 9 13 5 7 1022.1 1022.1 0.0

Other Formats:

Comma delimited format used in spreadsheet applications
http://www.bom.gov.au/fwo/IDW60801/IDW60801.94609.axf

JavaScript Object Notation format (JSON) in row-major order
http://www.bom.gov.au/fwo/IDW60801/IDW60801.94609.json